Date,TemperatureHighF,TemperatureAvgF,TemperatureLowF,DewpointHighF,DewpointAvgF,DewpointLowF,HumidityHigh,HumidityAvg,HumidityLow,PressureMaxIn,PressureMinIn,WindSpeedMaxMPH,WindSpeedAvgMPH,GustSpeedMaxMPH,PrecipitationSumIn
2013-1-1,74.2,60.3,45.8,61.3,54.7,44.4,97,83,63,30.22,30.02,20,4,20,0.00
2013-1-2,76.2,65.8,59.9,69.4,62.9,57.1,96,90,75,30.07,29.97,12,4,13,0.00
2013-1-3,64.0,56.9,48.7,62.2,55.8,47.6,97,96,94,30.25,30.04,15,6,15,0.19
2013-1-4,58.8,50.3,44.3,50.9,46.9,42.8,96,88,73,30.34,30.23,16,5,16,0.00
2013-1-5,66.8,52.6,38.4,52.8,45.3,36.8,96,78,50,30.34,30.23,12,3,12,0.00
2013-1-6,61.3,56.5,53.6,55.8,53.6,51.9,96,90,82,30.25,30.11,10,4,10,0.14
2013-1-7,63.0,54.2,46.9,54.1,48.9,43.3,96,83,63,30.28,30.17,18,8,18,0.00
2013-1-8,78.0,64.0,52.3,68.3,59.7,49.8,95,86,71,30.28,30.17,18,7,18,0.00
2013-1-9,78.5,70.1,63.8,72.1,67.6,62.9,98,92,80,30.32,30.21,14,5,14,0.00
2013-1-10,82.1,73.6,69.2,70.3,67.4,63.1,94,82,58,30.32,30.22,18,8,18,0.00
2013-1-11,83.5,69.8,59.2,68.3,61.7,57.1,97,78,46,30.27,30.14,15,3,15,0.00
2013-1-12,84.9,68.5,56.3,68.7,61.1,54.6,97,80,50,30.19,30.08,14,2,14,0.00
2013-1-13,82.1,69.3,59.3,66.8,62.6,57.0,94,81,55,30.16,30.06,14,3,14,0.00
2013-1-14,82.0,66.6,56.1,67.7,59.9,53.8,97,81,54,30.19,30.10,17,4,17,0.00
2013-1-15,81.5,65.5,51.8,66.5,58.7,50.3,97,81,54,30.15,30.05,18,3,18,0.00
2013-1-16,81.1,67.1,56.4,68.2,60.9,53.8,96,82,58,30.09,29.99,20,4,20,0.00
2013-1-17,65.2,55.9,41.4,64.3,51.5,34.0,97,86,63,30.18,29.95,24,9,24,0.03
2013-1-18,61.7,49.2,38.7,47.1,40.6,33.4,84,73,57,30.39,30.18,28,11,28,0.00
2013-1-19,72.0,56.8,43.0,55.7,48.4,38.8,93,74,52,30.35,30.18,17,8,17,0.00
2013-1-20,74.0,61.0,50.0,56.3,53.0,47.2,94,78,48,30.22,30.07,12,4,12,0.00
2013-1-21,70.1,56.6,46.4,53.5,48.9,44.3,94,78,51,30.14,30.03,12,2,12,0.00
2013-1-22,63.4,49.7,37.3,44.5,36.9,31.2,89,65,32,30.31,30.10,14,3,14,0.00
2013-1-23,65.8,46.1,28.9,43.8,34.8,26.5,93,69,36,30.42,30.29,16,2,16,0.00
2013-1-24,74.2,54.5,36.6,55.9,45.9,34.2,95,76,44,30.33,30.20,20,4,20,0.00
2013-1-25,74.4,60.1,50.9,57.7,51.1,48.0,92,75,41,30.33,30.17,13,4,14,0.00
2013-1-26,74.9,59.9,44.4,62.2,54.0,42.8,97,82,58,30.26,30.16,20,3,20,0.00
2013-1-27,77.3,61.5,48.2,63.8,55.8,46.6,96,83,59,30.34,30.23,19,6,19,0.00
2013-1-28,79.2,67.1,54.8,65.5,59.9,52.9,95,79,57,30.36,30.22,20,4,20,0.00
2013-1-29,82.2,70.6,61.1,67.4,63.7,58.8,96,80,57,30.25,30.07,17,5,17,0.00
2013-1-30,81.1,72.1,55.9,68.0,65.0,52.2,92,79,58,30.08,29.80,34,15,35,0.09
2013-1-31,60.1,50.9,35.3,54.1,37.1,28.5,91,62,31,30.27,29.92,18,8,18,0.00
2013-2-1,67.2,47.9,29.9,37.9,33.5,26.5,90,62,30,30.36,30.25,17,4,17,0.00
2013-2-2,66.8,46.3,28.9,36.9,30.5,21.9,85,59,25,30.35,30.17,12,2,12,0.00
2013-2-3,68.8,48.4,29.7,48.0,33.9,27.1,95,64,22,30.21,30.06,17,4,17,0.00
2013-2-4,66.1,48.4,31.8,46.5,36.4,29.5,95,68,35,30.14,30.05,12,2,12,0.00
2013-2-5,71.8,55.8,38.2,56.6,47.5,35.6,93,76,53,30.10,30.01,10,2,10,0.00
2013-2-6,75.3,63.9,57.5,62.5,58.7,54.8,95,84,60,30.13,30.04,13,4,13,0.04
2013-2-7,77.7,65.7,56.8,66.3,62.0,54.8,95,88,65,30.08,29.84,23,8,23,0.38
2013-2-8,72.8,61.9,51.0,63.8,56.9,48.4,93,84,65,30.10,29.88,17,6,17,0.00
2013-2-9,71.5,57.0,46.2,53.1,48.7,44.6,95,76,47,30.24,30.09,18,6,18,0.00
2013-2-10,78.4,63.2,48.8,59.8,54.2,44.7,95,74,52,30.28,30.14,25,8,25,0.00
2013-2-11,80.1,69.7,61.9,66.5,62.9,58.2,94,80,61,30.17,30.07,23,9,23,0.00
2013-2-12,81.3,70.6,61.9,69.5,66.3,60.2,96,87,65,30.08,29.89,19,7,19,0.00
2013-2-13,73.3,70.2,61.6,70.4,66.7,55.4,93,89,69,29.94,29.83,22,9,22,0.16
2013-2-14,61.6,52.7,46.0,57.4,49.7,44.1,93,89,84,30.10,29.93,14,4,14,0.08
2013-2-15,66.5,50.2,37.8,46.7,41.6,36.0,94,76,38,30.12,29.98,13,3,13,0.00
2013-2-16,57.9,47.9,39.7,47.2,38.4,22.7,94,72,44,30.18,29.94,28,6,28,0.00
2013-2-17,53.7,39.5,27.6,25.5,20.5,11.5,79,51,19,30.37,30.18,20,4,20,0.00
2013-2-18,65.4,44.4,21.8,42.0,29.0,19.1,93,61,26,30.41,30.24,18,4,18,0.00
2013-2-19,76.5,60.2,40.8,61.6,52.5,38.6,94,77,52,30.24,30.04,28,8,28,0.00
2013-2-20,69.3,57.7,47.4,58.9,42.7,33.6,90,60,36,30.19,30.06,17,5,17,0.00
2013-2-21,79.8,60.9,40.3,60.5,49.7,36.8,92,69,46,30.14,29.98,13,3,13,0.00
2013-2-22,85.1,70.1,57.6,68.1,61.8,54.0,94,77,52,30.06,29.97,16,6,16,0.00
2013-2-23,81.0,72.5,64.1,70.6,67.8,62.3,94,85,69,29.99,29.86,25,9,25,0.48
2013-2-24,74.2,67.5,63.6,67.1,64.2,61.1,96,89,73,29.99,29.86,13,5,13,0.00
2013-2-25,72.0,63.4,59.6,68.1,61.0,57.3,94,92,85,29.91,29.77,15,7,15,0.69
2013-2-26,75.0,66.6,59.0,67.7,61.3,55.8,93,84,63,29.86,29.63,27,10,27,1.20
2013-2-27,71.2,59.3,51.4,55.8,47.9,41.3,89,68,42,30.00,29.85,15,6,15,0.00
2013-2-28,71.6,56.2,44.4,51.2,45.5,41.9,94,70,37,29.99,29.89,29,6,29,0.00
2013-3-1,60.7,52.0,45.2,44.4,38.7,35.1,86,61,40,30.03,29.92,14,6,14,0.00
2013-3-2,55.7,44.3,32.3,37.3,31.7,27.0,92,64,35,30.06,29.96,26,7,26,0.00
2013-3-3,50.5,39.5,28.8,32.9,29.4,24.9,87,69,46,30.16,30.02,21,6,21,0.00
2013-3-4,67.0,45.1,25.6,36.6,28.9,22.9,93,60,26,30.24,30.11,12,3,12,0.00
2013-3-5,75.0,56.1,34.4,61.7,47.6,30.6,93,75,51,30.18,29.94,25,8,25,0.00
2013-3-6,66.5,53.2,39.4,62.7,36.3,27.8,90,56,28,30.17,29.93,31,12,31,0.00
2013-3-7,67.3,49.3,35.0,41.5,35.4,30.4,85,62,32,30.25,30.14,12,3,12,0.00
2013-3-8,75.6,52.9,32.1,46.7,36.2,29.8,96,61,21,30.25,30.12,15,3,15,0.00
2013-3-9,73.6,57.2,37.2,50.7,44.4,34.8,95,67,32,30.27,30.16,20,6,20,0.00
2013-3-10,79.8,64.8,50.6,57.5,52.9,46.4,93,68,42,30.20,30.06,23,9,23,0.00
2013-3-11,78.4,66.1,54.2,60.3,56.7,51.3,92,73,50,30.11,29.88,25,8,25,0.00
2013-3-12,70.2,63.2,48.1,63.7,56.4,44.4,95,80,47,30.05,29.82,21,6,21,0.28
2013-3-13,71.7,57.7,44.5,45.5,39.0,32.6,89,54,25,30.21,30.05,23,6,23,0.00
2013-3-14,64.6,51.5,38.6,39.6,30.6,27.9,70,47,26,30.32,30.19,17,6,17,0.00
2013-3-15,75.1,52.2,31.0,42.3,35.5,28.0,93,58,29,30.30,30.13,16,4,16,0.00
2013-3-16,78.7,58.4,38.1,58.1,45.6,35.6,96,67,38,30.18,30.04,20,5,20,0.00
2013-3-17,73.6,59.1,42.0,60.2,51.1,39.8,96,77,49,30.12,30.00,16,4,16,0.10
2013-3-18,77.8,66.7,59.4,67.8,62.6,58.0,96,87,67,30.04,29.87,16,5,16,0.03
2013-3-19,81.6,68.1,57.3,64.4,60.7,55.3,95,79,53,30.03,29.89,20,4,20,0.06
2013-3-20,75.2,62.7,51.9,59.7,55.1,49.1,94,78,53,30.00,29.84,16,4,16,0.17
2013-3-21,69.8,52.6,38.0,50.1,38.9,29.1,94,66,22,30.00,29.88,16,4,16,0.00
2013-3-22,70.0,55.1,39.7,49.0,42.5,34.1,94,65,44,30.04,29.92,18,6,18,0.00
2013-3-23,76.2,64.1,52.9,72.5,60.7,46.2,96,89,71,29.98,29.75,17,4,17,0.34
2013-3-24,82.9,73.0,64.0,72.9,68.6,61.6,96,87,68,29.78,29.58,29,11,29,0.11
2013-3-25,67.8,57.8,45.9,61.5,39.0,26.8,93,53,22,30.06,29.68,24,11,24,0.00
2013-3-26,57.7,47.6,36.7,31.5,28.6,25.2,78,49,31,30.27,30.06,26,8,26,0.00
2013-3-27,62.2,45.4,29.4,33.8,30.6,26.0,91,61,29,30.34,30.22,12,3,18,0.00
2013-3-28,69.8,50.0,29.8,41.2,33.4,27.5,94,60,27,30.32,30.20,14,4,14,0.00
2013-3-29,76.1,55.2,34.4,47.4,38.6,31.8,94,60,25,30.34,30.18,14,3,14,0.00
2013-3-30,77.4,58.8,37.9,53.1,42.9,35.4,95,62,28,30.27,30.12,22,4,22,0.00
2013-3-31,79.0,65.3,50.8,59.4,54.9,47.9,93,72,43,30.14,29.99,27,8,27,0.00
2013-4-1,82.4,69.0,55.4,67.2,60.9,53.4,96,77,51,30.01,29.91,21,6,21,0.00
2013-4-2,84.8,67.0,47.6,58.7,51.0,45.7,96,62,29,30.11,29.99,19,4,19,0.00
2013-4-3,80.8,67.2,57.0,68.4,60.3,48.8,95,79,59,30.09,29.98,21,6,21,0.39
2013-4-4,74.6,69.3,64.7,68.5,65.2,61.9,96,87,74,30.00,29.87,21,8,21,0.05
2013-4-5,65.9,60.9,53.4,64.1,58.4,49.6,95,91,84,30.05,29.79,17,6,17,0.35
2013-4-6,75.4,60.2,45.0,56.6,51.5,43.4,95,75,50,30.16,30.03,21,7,21,0.00
2013-4-7,80.8,67.4,51.0,64.3,56.6,49.0,96,71,44,30.18,30.06,17,5,17,0.00
2013-4-8,86.3,71.2,56.9,64.4,58.6,54.0,96,68,37,30.14,30.04,17,4,17,0.00
2013-4-9,86.5,73.7,59.6,67.9,62.4,57.8,96,70,45,30.18,30.07,20,7,20,0.00
2013-4-10,88.5,73.1,57.3,66.4,60.8,54.7,95,68,41,30.13,29.97,17,5,17,0.00
2013-4-11,89.4,77.4,69.0,73.9,69.9,65.6,95,79,57,29.98,29.79,22,8,22,0.00
2013-4-12,83.9,76.4,72.2,74.5,70.6,66.6,93,83,67,29.88,29.75,29,10,29,0.00
2013-4-13,87.2,72.5,59.0,68.0,54.4,47.6,90,57,26,30.01,29.87,13,4,17,0.00
2013-4-14,74.4,67.5,62.2,68.7,61.0,52.7,96,80,61,29.99,29.85,28,7,28,0.70
2013-4-15,87.1,73.1,60.1,72.0,65.5,58.3,96,79,57,30.10,29.82,17,3,17,0.00
2013-4-16,88.0,74.5,62.4,72.1,66.0,60.6,96,77,52,30.16,30.07,18,7,18,0.00
2013-4-17,83.7,72.6,63.7,72.1,65.9,61.3,97,81,56,30.17,30.06,17,6,17,0.00
2013-4-18,87.6,74.2,62.6,71.1,65.2,60.5,97,76,50,30.08,29.94,17,3,17,0.00
2013-4-19,87.3,76.7,67.2,75.5,70.6,64.3,93,82,64,30.01,29.89,25,10,25,0.00
2013-4-20,67.2,55.1,49.7,64.8,51.7,47.2,95,89,72,30.20,30.00,14,6,14,0.68
2013-4-21,71.4,60.6,48.4,63.6,56.8,46.2,95,88,74,30.19,30.09,19,8,19,0.05
2013-4-22,65.3,63.4,56.8,62.2,60.0,53.9,94,89,83,30.14,30.05,20,10,20,0.00
2013-4-23,80.4,65.5,50.7,62.6,56.4,49.0,96,75,51,30.15,30.06,15,6,15,0.00
2013-4-24,86.3,69.2,53.0,64.4,59.2,51.0,96,74,45,30.15,30.07,15,4,15,0.00
2013-4-25,87.6,71.0,55.2,69.7,62.2,53.5,97,76,47,30.21,30.10,16,3,16,0.00
2013-4-26,85.2,72.9,60.8,67.7,63.2,56.7,94,73,50,30.27,30.17,18,7,18,0.00
2013-4-27,85.3,71.8,58.1,67.3,60.7,55.8,95,71,45,30.25,30.10,15,6,15,0.00
2013-4-28,86.4,72.5,61.2,70.5,64.4,57.9,95,78,45,30.16,29.95,20,5,20,0.09
2013-4-29,82.0,72.3,63.9,70.0,66.0,60.8,95,81,61,30.02,29.92,14,4,14,0.00
2013-4-30,89.1,73.8,63.4,70.9,65.9,60.8,96,79,47,30.03,29.91,18,4,18,0.00
2013-5-1,78.4,69.6,65.0,70.0,65.8,62.9,96,88,73,30.04,29.95,21,9,21,0.04
2013-5-2,76.4,69.0,65.4,70.8,66.5,62.7,96,92,76,30.02,29.85,24,10,24,0.80
2013-5-3,72.2,67.6,65.9,69.6,65.5,61.1,97,93,84,29.85,29.79,27,12,28,0.94
2013-5-4,71.9,68.7,65.3,69.8,66.5,62.3,96,93,83,29.82,29.70,20,8,20,0.08
2013-5-5,77.6,65.0,51.5,66.4,55.2,49.2,96,74,40,29.92,29.77,23,9,23,0.00
2013-5-6,72.9,62.3,51.5,60.3,50.8,46.0,91,69,40,30.01,29.87,17,6,17,0.00
2013-5-7,78.5,64.0,51.0,63.7,56.3,48.1,95,78,48,30.03,29.94,25,5,25,0.00
2013-5-8,81.7,68.0,53.0,65.2,59.1,51.3,97,76,48,30.13,30.00,20,4,20,0.00
2013-5-9,85.7,71.0,56.1,69.3,61.0,54.4,97,74,44,30.15,30.06,14,2,14,0.00
2013-5-10,90.5,72.9,55.5,70.7,61.4,52.0,97,71,29,30.14,29.99,18,4,18,0.00
2013-5-11,86.7,72.0,61.4,73.6,67.4,58.9,96,87,62,30.05,29.93,15,4,15,0.23
2013-5-12,86.4,74.3,64.6,71.8,67.2,63.4,98,80,55,30.05,29.94,17,5,17,0.00
2013-5-13,79.1,69.0,52.7,65.3,52.4,43.3,94,59,30,30.16,30.00,20,5,20,0.00
2013-5-14,81.6,63.8,43.7,51.4,44.9,40.5,94,56,24,30.25,30.14,18,4,18,0.00
2013-5-15,88.4,69.7,49.5,65.3,55.4,46.6,95,65,34,30.23,30.06,14,2,14,0.00
2013-5-16,87.5,73.1,57.0,69.6,63.8,54.7,96,75,49,30.13,30.00,12,3,12,0.00
2013-5-17,92.8,76.5,62.6,69.5,65.1,59.9,93,71,42,30.10,30.01,13,3,13,0.00
2013-5-18,92.8,78.1,64.1,73.2,68.4,61.3,96,74,48,30.11,29.99,11,3,11,0.00
2013-5-19,92.9,78.8,69.3,74.4,69.2,63.1,96,75,46,30.09,29.96,12,4,12,0.00
2013-5-20,93.7,75.5,66.6,74.2,68.8,64.7,97,82,48,30.08,29.96,26,4,26,0.96
2013-5-21,87.4,72.3,62.9,74.7,68.5,61.8,98,89,59,30.05,29.94,29,3,29,0.02
2013-5-22,89.2,75.4,65.0,74.7,69.1,63.8,98,83,54,29.99,29.88,15,3,15,0.00
2013-5-23,92.5,78.8,65.7,73.9,69.5,64.2,97,76,48,29.99,29.91,18,4,18,0.00
2013-5-24,91.8,79.0,67.2,70.9,65.6,56.7,97,68,36,30.10,29.95,17,5,17,0.00
2013-5-25,88.1,73.3,56.1,64.3,58.7,53.2,94,64,39,30.22,30.09,17,5,17,0.00
2013-5-26,88.2,72.4,52.9,63.3,57.2,50.4,95,63,32,30.23,30.12,14,4,14,0.00
2013-5-27,90.2,75.4,57.6,66.5,61.8,54.7,94,65,41,30.20,30.08,18,6,18,0.00
2013-5-28,91.1,76.5,58.8,71.5,66.3,56.5,96,73,47,30.16,30.05,20,8,20,0.00
2013-5-29,92.7,79.5,67.1,74.4,70.4,65.0,97,76,50,30.14,30.04,24,9,24,0.00
2013-5-30,92.7,80.3,68.9,74.7,71.1,67.1,97,75,50,30.13,30.03,22,10,22,0.00
2013-5-31,90.4,79.9,69.7,77.2,71.6,67.8,94,77,57,30.11,30.03,28,12,28,0.03
2013-6-1,93.4,79.8,68.5,75.1,71.7,66.8,97,78,53,30.08,29.95,20,8,20,0.00
2013-6-2,93.7,81.6,72.9,77.4,73.8,70.6,96,79,56,30.03,29.85,13,4,13,0.00
2013-6-3,94.2,81.6,69.9,77.6,73.6,68.0,97,79,53,29.97,29.84,20,5,20,0.00
2013-6-4,88.1,77.4,71.1,77.9,73.7,69.6,97,89,68,30.02,29.92,15,3,15,1.73
2013-6-5,83.4,74.1,71.3,76.6,72.3,70.3,98,94,75,30.01,29.91,16,3,16,1.17
2013-6-6,77.5,73.7,71.0,76.5,72.5,70.1,98,96,90,29.92,29.41,32,13,32,1.36
2013-6-7,89.4,78.8,69.9,76.6,72.9,68.6,97,83,62,29.93,29.67,19,8,19,0.00
2013-6-8,92.6,80.7,70.7,77.9,74.0,69.3,98,82,59,30.07,29.93,20,4,20,0.00
2013-6-9,93.9,79.7,71.9,78.2,73.2,70.3,95,82,53,30.10,30.00,20,4,20,0.00
2013-6-10,93.2,80.3,71.3,79.1,74.0,69.5,96,82,56,30.09,30.01,28,4,28,0.00
2013-6-11,93.8,81.0,69.9,78.5,73.7,68.7,98,81,55,30.09,29.99,10,2,15,0.00
2013-6-12,97.3,84.0,72.2,78.4,74.9,70.8,97,77,49,30.08,29.97,12,3,12,0.00
2013-6-13,94.9,82.7,74.5,80.5,76.3,72.5,97,82,56,30.01,29.88,17,4,17,0.00
2013-6-14,88.1,80.4,71.5,80.9,76.9,68.7,97,89,77,29.92,29.81,27,5,27,0.84
2013-6-15,89.0,80.6,73.4,76.0,73.1,69.1,96,79,63,30.07,29.92,23,9,23,0.00
2013-6-16,91.9,80.4,72.8,79.0,74.3,69.0,95,83,61,30.10,30.00,12,4,12,0.09
2013-6-17,95.8,82.0,73.0,79.2,74.7,70.9,97,81,47,30.08,29.96,15,3,15,0.00
2013-6-18,93.1,81.2,69.8,77.6,73.5,68.6,97,79,55,30.04,29.94,17,4,17,0.00
2013-6-19,94.6,82.4,72.1,78.1,74.4,70.6,97,78,52,30.03,29.92,18,4,18,0.00
2013-6-20,94.5,78.7,70.7,78.9,73.2,69.1,97,85,47,30.09,29.98,32,3,32,1.03
2013-6-21,90.4,76.9,71.3,77.8,73.6,69.5,99,90,62,30.12,30.04,20,4,20,0.09
2013-6-22,89.1,76.9,68.8,77.2,72.6,67.9,98,88,64,30.13,30.05,12,2,12,0.11
2013-6-23,92.2,81.6,71.7,78.7,74.2,70.5,98,80,57,30.14,30.05,14,4,14,0.00
2013-6-24,94.7,81.9,71.6,78.1,73.9,70.1,97,79,51,30.19,30.05,20,4,20,1.49
2013-6-25,91.9,78.5,72.0,80.3,74.5,71.1,99,88,61,30.16,30.04,12,3,12,0.02
2013-6-26,93.3,80.2,71.7,79.8,74.2,69.8,97,83,57,30.08,29.98,24,3,24,0.13
2013-6-27,91.5,79.8,69.5,81.6,74.7,68.3,98,86,65,30.03,29.91,12,2,16,0.03
2013-6-28,90.4,79.5,74.3,79.1,74.8,72.3,97,86,62,29.94,29.80,20,4,20,0.00
2013-6-29,85.4,78.8,73.5,78.5,75.5,72.0,97,90,76,29.85,29.74,20,5,20,1.63
2013-6-30,88.8,79.0,74.3,79.7,75.7,72.4,97,90,70,29.86,29.76,21,5,21,2.37
2013-7-1,78.9,74.2,72.1,77.6,73.2,71.2,98,97,91,29.99,29.81,18,5,18,1.39
2013-7-2,88.8,77.2,72.0,78.9,73.8,71.1,98,90,69,30.09,29.95,22,7,22,0.64
2013-7-3,93.3,77.4,72.2,79.8,73.9,71.0,98,90,61,30.11,30.01,40,5,40,0.30
2013-7-4,85.1,75.5,69.7,79.0,72.8,68.3,97,91,75,30.17,30.07,23,6,23,0.67
2013-7-5,91.0,76.7,69.6,80.0,73.6,68.4,98,91,67,30.14,30.08,30,4,30,0.14
2013-7-6,91.6,80.5,73.0,80.8,75.6,71.8,97,86,63,30.13,30.02,20,6,20,0.05
2013-7-7,94.7,81.6,72.4,78.8,75.2,71.2,97,83,53,30.14,30.03,22,5,22,0.00
2013-7-8,94.2,82.7,71.2,79.5,75.1,70.0,98,80,55,30.16,30.07,14,4,14,0.00
2013-7-9,95.0,82.6,71.9,79.2,74.8,70.4,97,79,49,30.17,30.05,14,3,14,0.00
2013-7-10,95.5,80.5,71.3,77.5,72.8,69.3,97,80,46,30.10,29.96,17,3,17,0.00
2013-7-11,91.7,80.2,71.2,78.8,74.5,69.7,97,84,60,30.01,29.90,16,4,16,0.00
2013-7-12,88.3,78.3,71.7,77.7,73.9,70.2,97,87,66,29.94,29.86,20,3,20,0.80
2013-7-13,83.2,75.2,71.9,77.9,73.5,70.7,98,94,81,29.99,29.88,16,3,16,0.75
2013-7-14,91.1,79.0,71.4,79.6,74.3,70.2,98,87,63,30.09,29.96,25,6,25,0.00
2013-7-15,89.5,78.8,71.5,78.7,74.4,70.3,98,87,69,30.14,30.06,20,7,20,0.00
2013-7-16,92.4,80.5,73.5,78.7,74.8,72.3,98,84,58,30.18,30.11,22,7,22,0.08
2013-7-17,93.5,81.4,72.1,78.4,74.1,70.9,98,80,51,30.20,30.07,20,5,20,0.00
2013-7-18,92.1,79.9,72.3,77.3,73.6,70.1,97,83,54,30.13,30.02,12,3,12,0.04
2013-7-19,85.7,77.4,73.1,78.5,74.1,71.9,96,90,73,30.11,30.03,18,4,18,0.40
2013-7-20,88.5,75.3,72.4,78.5,73.1,71.2,97,93,70,30.10,30.01,20,3,20,1.30
2013-7-21,88.8,78.5,71.6,81.3,75.2,70.7,98,90,71,30.10,30.01,26,3,26,0.11
2013-7-22,88.3,76.7,72.3,79.8,74.7,71.1,98,94,72,30.14,30.03,17,2,17,0.92
2013-7-23,88.4,76.5,72.6,80.7,74.7,70.8,97,94,76,30.05,29.91,31,3,31,1.52
2013-7-24,87.1,77.5,70.8,80.6,74.7,69.3,97,91,77,29.97,29.85,25,4,25,0.60
2013-7-25,87.0,79.3,72.3,78.6,74.8,70.8,96,87,71,29.97,29.85,20,4,20,0.00
2013-7-26,96.2,82.1,72.0,80.8,75.7,70.5,97,82,55,30.01,29.93,13,2,13,0.00
2013-7-27,96.7,83.4,73.9,79.5,74.6,70.1,96,77,43,29.99,29.88,13,4,13,0.00
2013-7-28,92.8,78.1,71.4,79.8,74.3,68.3,96,89,61,30.05,29.92,23,2,23,1.94
2013-7-29,94.9,80.2,70.9,79.8,75.4,69.7,98,87,59,30.14,30.02,18,2,18,0.76
2013-7-30,96.8,80.7,73.7,81.1,75.7,71.6,97,86,56,30.17,30.06,23,2,23,0.11
2013-7-31,94.1,78.6,71.7,80.9,74.7,70.5,97,89,62,30.12,30.01,20,2,20,0.82
2013-8-1,89.5,76.2,72.1,81.6,73.8,70.6,97,93,73,30.04,29.96,16,2,16,0.43
2013-8-2,91.4,79.9,70.7,81.7,75.4,69.5,97,87,66,30.04,29.93,12,2,12,0.04
2013-8-3,92.0,82.0,72.8,81.4,76.2,71.0,96,83,63,30.06,29.99,14,3,14,0.00
2013-8-4,93.0,83.8,75.7,82.2,77.9,73.8,95,83,65,30.06,29.94,15,4,15,0.05
2013-8-5,94.9,83.3,78.1,82.0,78.1,74.1,95,85,63,30.00,29.90,22,2,22,0.38
2013-8-6,94.5,81.6,76.5,82.4,77.5,74.8,96,88,63,29.99,29.89,14,3,14,0.33
2013-8-7,92.4,80.8,74.2,81.4,76.7,72.7,96,88,64,29.99,29.92,17,3,17,0.00
2013-8-8,92.7,80.4,75.1,79.9,75.9,73.0,95,87,62,30.04,29.94,22,4,22,0.81
2013-8-9,92.8,81.6,73.0,79.4,75.5,71.0,95,83,58,30.08,29.97,20,4,20,0.00
2013-8-10,95.1,82.1,71.5,80.2,74.7,69.4,94,80,54,30.13,30.04,13,3,13,0.00
2013-8-11,97.8,85.1,74.3,81.3,76.5,71.8,93,78,52,30.15,30.04,9,2,9,0.00
2013-8-12,98.5,85.4,73.8,80.0,76.4,71.3,93,76,51,30.12,29.98,13,2,13,0.00
2013-8-13,97.9,84.8,74.2,79.5,75.7,71.7,93,76,46,30.04,29.90,13,3,13,0.00
2013-8-14,96.7,83.6,73.7,80.8,75.7,71.2,93,79,53,29.98,29.87,15,3,15,0.02
2013-8-15,94.5,83.1,73.5,80.0,75.3,70.7,92,79,57,30.01,29.90,20,4,20,0.00
2013-8-16,86.8,77.5,73.9,79.3,74.2,71.4,93,90,76,30.05,29.96,22,3,22,1.20
2013-8-17,92.5,79.0,73.7,81.2,74.5,71.2,93,87,64,30.11,29.97,27,4,27,1.14
2013-8-18,91.7,78.9,73.1,81.5,74.5,70.6,93,87,67,30.11,30.00,21,4,21,0.08
2013-8-19,93.2,81.0,73.6,80.8,75.8,71.0,92,85,62,30.07,29.97,15,3,15,0.27
2013-8-20,95.6,80.2,72.2,79.9,73.9,69.2,92,82,56,30.12,29.98,18,4,18,0.87
2013-8-21,88.0,76.7,70.9,81.6,73.2,68.1,93,89,77,30.16,30.02,23,3,23,0.91
2013-8-22,88.4,76.1,72.3,80.6,72.9,69.8,92,90,74,30.12,30.01,20,3,20,3.57
2013-8-23,82.1,74.1,71.1,78.9,71.6,68.7,94,92,89,30.04,29.98,9,2,9,1.13
2013-8-24,88.9,77.5,71.9,80.8,73.2,69.1,91,87,74,30.14,30.01,14,3,14,0.13
2013-8-25,86.1,77.2,73.9,77.9,71.9,69.1,86,84,75,30.19,30.11,23,6,23,0.08
2013-8-26,88.8,78.3,70.5,78.0,71.6,65.1,85,80,65,30.18,30.03,15,6,15,0.00
2013-8-27,91.9,80.4,72.0,77.2,71.8,65.8,86,76,58,30.09,29.99,14,3,14,0.00
2013-8-28,91.7,79.8,69.0,76.5,70.1,62.9,84,73,55,30.05,29.97,12,2,12,0.00
2013-8-29,93.8,81.3,70.3,78.3,71.2,63.3,83,72,53,30.02,29.91,15,2,15,0.00
2013-8-30,95.4,81.8,72.6,79.8,72.0,64.5,83,73,55,29.97,29.86,10,2,10,0.48
2013-8-31,91.7,80.4,71.5,80.3,71.4,62.5,82,74,64,29.94,29.87,15,3,15,0.00
2013-9-1,92.3,80.9,73.3,78.9,71.5,63.5,82,73,60,29.98,29.89,15,3,15,0.07
2013-9-2,92.0,79.7,72.0,79.0,70.0,61.7,81,72,64,30.00,29.90,17,3,17,0.19
2013-9-3,92.3,80.7,72.9,80.2,70.2,61.0,80,71,62,30.01,29.91,10,2,10,0.09
2013-9-4,95.6,81.1,71.9,80.6,70.1,59.8,80,70,57,30.08,29.97,12,2,12,0.11
2013-9-5,97.4,83.0,71.0,78.2,69.5,58.8,80,65,47,30.10,29.99,17,2,17,0.00
2013-9-6,95.0,78.9,71.1,79.5,67.8,58.3,80,69,57,30.05,29.93,26,3,26,0.76
2013-9-7,90.2,78.0,67.4,76.9,66.1,54.8,79,67,55,30.04,29.92,17,4,17,0.00
2013-9-8,91.1,78.7,67.8,74.8,66.0,55.4,80,66,50,29.99,29.89,15,3,15,0.00
2013-9-9,94.0,79.3,66.6,75.8,67.0,55.1,80,67,49,30.05,29.95,14,4,14,0.00
2013-9-10,91.4,78.0,66.7,76.7,66.0,54.4,80,67,50,30.13,30.03,20,5,20,0.00
2013-9-11,91.2,77.8,70.2,77.4,67.4,56.4,79,71,58,30.11,30.01,26,5,26,0.00
2013-9-12,94.3,79.6,69.3,77.1,66.7,54.5,79,65,51,30.05,29.87,22,2,22,0.00
2013-9-13,94.8,80.5,68.7,77.1,66.6,54.3,79,63,48,29.92,29.78,12,2,12,0.00
2013-9-14,95.4,79.7,68.0,77.3,65.5,53.8,78,62,51,29.99,29.82,16,2,16,0.73
2013-9-15,95.6,79.8,70.9,79.9,66.3,54.8,78,64,50,30.09,29.97,20,4,20,0.09
2013-9-16,95.8,80.0,71.1,79.2,65.1,54.3,78,61,49,30.08,29.96,21,3,21,0.11
2013-9-17,91.6,79.4,70.2,79.1,65.7,52.8,77,63,47,30.08,29.97,19,6,19,0.00
2013-9-18,86.4,77.7,71.7,75.5,65.5,53.5,78,67,50,30.08,30.01,23,9,23,0.00
2013-9-19,92.5,77.3,68.0,75.9,64.6,51.9,77,65,51,30.08,29.98,16,5,16,0.05
2013-9-20,91.8,77.9,66.5,73.4,63.3,49.8,77,61,49,30.05,29.89,13,3,13,0.00
2013-9-21,91.5,79.4,69.6,73.9,66.8,53.3,77,66,52,29.94,29.76,13,3,13,0.00
2013-9-22,81.9,75.8,73.7,73.6,59.6,52.4,76,58,47,29.85,29.74,14,2,14,0.60
2013-9-23,82.4,75.9,73.4,72.5,54.8,50.5,73,48,40,29.94,29.82,13,3,13,0.90
2013-9-24,85.8,77.0,74.1,76.4,53.9,48.9,75,45,37,29.93,29.82,14,4,14,0.90
2013-9-25,85.1,76.2,71.5,76.3,53.5,45.6,75,47,36,29.84,29.74,12,2,12,2.12
2013-9-26,85.9,76.0,70.7,75.4,56.4,43.6,75,53,32,29.91,29.75,17,5,17,0.01
2013-9-27,85.0,74.2,65.5,71.7,60.7,43.1,76,64,42,30.01,29.89,20,7,20,0.00
2013-9-28,80.3,72.7,66.3,71.4,60.2,43.3,77,66,40,30.06,29.97,20,8,20,0.00
2013-9-29,89.2,75.5,65.7,73.5,63.0,44.7,76,66,46,30.03,29.91,14,5,14,0.00
2013-9-30,87.4,74.3,66.5,74.3,59.2,44.3,76,60,39,30.03,29.93,13,3,13,0.32
2013-10-1,87.9,76.3,67.6,75.3,64.7,48.9,76,68,50,30.09,29.98,14,5,14,0.00
2013-10-2,87.6,75.5,64.8,71.1,61.8,43.8,76,63,43,30.09,30.01,14,4,14,0.00
2013-10-3,90.8,77.1,66.0,75.8,61.5,42.8,75,59,36,30.09,29.99,13,3,13,0.00
2013-10-4,92.0,79.5,68.9,76.0,61.5,42.5,75,55,32,30.10,29.99,9,3,9,0.00
2013-10-5,91.2,78.6,69.3,76.3,61.2,41.6,74,56,30,30.08,29.96,12,3,12,0.00
2013-10-6,91.3,78.6,70.3,76.9,58.5,40.2,74,52,27,30.00,29.84,12,2,12,0.00
2013-10-7,90.2,77.6,70.2,77.4,57.6,40.1,73,52,29,29.86,29.72,15,3,15,0.00
2013-10-8,84.7,75.3,69.6,74.3,56.7,40.0,74,55,31,30.00,29.79,16,6,18,0.00
2013-10-9,73.2,67.0,59.4,64.4,54.3,41.8,75,64,49,30.09,29.99,17,7,17,0.00
2013-10-10,86.6,69.2,54.6,66.8,51.5,33.2,75,54,34,30.08,29.97,11,2,11,0.01
2013-10-11,85.8,69.9,56.1,67.6,52.6,34.0,75,55,31,30.05,29.95,13,2,13,0.00
2013-10-12,87.3,71.2,59.6,68.0,52.5,35.1,75,53,31,30.05,29.97,14,2,14,0.00
2013-10-13,88.6,71.4,55.2,66.0,53.4,33.0,75,54,35,30.10,30.00,12,3,12,0.00
2013-10-14,81.2,70.8,62.5,68.9,54.8,34.7,74,58,31,30.08,29.98,17,5,17,0.00
2013-10-15,73.5,69.4,65.1,63.5,51.8,38.9,71,54,37,30.03,29.95,14,7,14,0.00
2013-10-16,85.0,74.0,63.9,72.3,57.9,37.2,74,58,34,30.00,29.90,10,2,10,0.00
2013-10-17,89.7,76.3,65.8,74.4,56.0,34.2,74,51,24,29.99,29.89,9,2,9,0.00
2013-10-18,91.4,75.7,63.4,73.6,55.7,33.1,73,51,23,29.99,29.89,12,2,12,0.00
2013-10-19,89.5,76.3,66.3,75.7,55.3,32.8,73,50,23,29.95,29.86,13,2,13,0.00
2013-10-20,84.6,73.9,64.2,71.2,56.3,35.3,74,56,32,29.99,29.89,12,5,12,0.00
2013-10-21,89.7,76.0,67.6,76.5,59.2,35.6,73,57,28,30.01,29.91,13,4,13,0.02
2013-10-22,78.6,73.6,70.6,62.1,40.3,31.0,57,31,21,29.97,29.81,8,2,8,0.14
2013-10-23,77.7,67.9,52.3,60.6,43.9,28.3,75,45,24,30.05,29.83,16,5,16,0.00
2013-10-24,74.4,58.1,48.7,55.6,44.1,35.9,76,61,34,30.19,30.04,12,2,12,0.00
2013-10-25,77.6,59.9,44.3,56.2,43.5,25.1,75,55,33,30.27,30.17,14,4,14,0.00
2013-10-26,76.5,57.4,41.8,54.8,43.6,27.2,76,62,40,30.26,30.12,13,2,13,0.00
2013-10-27,79.7,58.0,39.8,54.8,40.5,24.0,76,54,32,30.18,30.07,12,2,12,0.00
2013-10-28,84.3,63.2,45.7,61.0,46.6,26.3,75,56,32,30.23,30.11,12,2,12,0.00
2013-10-29,78.2,60.6,52.5,63.5,43.1,28.0,75,54,28,30.27,30.18,12,1,13,0.00
2013-10-30,87.4,69.7,55.4,68.8,51.5,28.2,74,54,25,30.26,30.13,15,4,15,0.00
2013-10-31,84.6,71.3,57.8,69.6,52.6,28.4,73,53,21,30.16,29.97,18,3,18,0.00
2013-11-1,81.7,73.3,64.2,71.7,53.8,38.0,73,52,33,30.00,29.82,21,6,21,0.00
2013-11-2,77.2,68.0,53.8,62.2,43.0,27.8,74,45,20,29.98,29.79,16,4,16,1.11
2013-11-3,72.4,59.1,49.2,50.8,42.7,29.6,76,56,37,30.20,29.98,20,6,20,0.00
2013-11-4,75.4,62.4,50.4,62.5,52.9,41.8,76,71,62,30.25,30.17,23,12,23,0.00
2013-11-5,72.0,65.8,61.5,63.3,51.7,39.2,74,61,38,30.25,30.15,23,14,23,0.00
2013-11-6,79.0,70.6,65.2,68.8,49.5,30.4,73,50,27,30.18,30.07,17,6,17,0.00
2013-11-7,83.7,71.7,66.9,68.6,48.2,31.1,73,46,25,30.07,29.97,10,3,10,0.00
2013-11-8,72.0,61.0,50.3,59.0,50.4,42.0,76,68,58,30.19,30.04,20,10,20,0.00
2013-11-9,80.8,63.5,48.5,64.9,50.5,28.7,76,63,42,30.23,30.13,20,5,20,0.00
2013-11-10,80.2,65.9,57.1,65.0,46.4,26.3,74,52,25,30.22,30.10,14,4,14,0.00
2013-11-11,83.2,66.0,51.7,65.1,48.1,26.0,75,53,32,30.20,30.09,13,2,13,0.00
2013-11-12,77.9,65.3,57.7,66.8,44.3,25.7,75,50,20,30.16,30.02,15,3,15,0.00
2013-11-13,61.2,49.6,42.3,49.2,38.1,28.5,74,65,54,30.41,30.16,29,15,29,0.00
2013-11-14,72.1,54.4,37.8,57.4,43.1,28.3,78,66,42,30.38,30.23,16,7,16,0.00
2013-11-15,65.7,60.2,53.9,32.5,28.4,25.8,43,30,25,30.23,30.03,14,3,14,0.13
2013-11-16,74.2,67.6,61.1,62.8,39.2,25.0,68,38,19,30.17,30.07,12,5,12,0.01
2013-11-17,83.6,73.4,68.0,72.3,46.4,21.5,72,43,15,30.10,30.00,13,4,13,0.07
2013-11-18,75.6,71.6,66.6,41.7,28.8,19.3,38,21,13,30.03,29.92,9,2,9,0.02
2013-11-19,74.9,65.0,56.8,60.9,48.9,18.8,74,60,14,30.05,29.91,18,8,18,0.00
2013-11-20,71.7,62.8,56.9,61.4,47.4,31.6,73,58,32,30.17,30.01,15,7,15,0.01
2013-11-21,79.6,68.4,61.9,69.0,45.9,29.4,73,47,28,30.23,30.15,18,8,18,0.00
2013-11-22,81.1,70.0,63.0,70.8,41.3,17.6,72,40,13,30.24,30.12,14,4,14,0.00
2013-11-23,83.5,69.9,57.3,68.5,46.6,17.7,72,48,14,30.14,30.02,15,3,15,0.00
2013-11-24,67.2,56.1,45.1,58.8,44.1,34.7,95,65,45,30.33,30.08,26,10,26,0.00
2013-11-25,74.7,58.9,45.2,56.2,46.7,35.5,78,65,46,30.31,30.09,21,10,21,0.00
2013-11-26,76.7,69.4,64.0,69.3,64.1,55.9,91,84,73,30.09,29.69,29,12,29,0.88
2013-11-27,69.8,51.4,33.4,67.1,45.1,29.9,91,79,60,30.25,29.66,24,10,24,0.06
2013-11-28,58.7,42.3,28.5,39.7,33.4,25.0,89,73,44,30.42,30.24,14,4,14,0.00
2013-11-29,68.9,52.2,38.8,47.6,40.5,33.0,83,67,37,30.44,30.32,14,6,14,0.00
2013-11-30,69.4,57.9,48.3,56.6,50.3,41.1,87,76,62,30.38,30.24,18,7,18,0.00
2013-12-1,75.1,60.4,53.1,57.1,52.9,50.0,92,78,49,30.24,29.99,12,3,12,0.00
2013-12-2,73.2,60.2,51.6,59.4,50.0,40.4,92,73,31,30.00,29.82,14,2,14,0.00
2013-12-3,77.4,60.2,46.1,58.3,51.9,43.6,92,76,50,29.97,29.88,17,3,17,0.00
2013-12-4,82.0,66.1,56.6,68.4,59.9,54.3,93,82,51,30.09,29.95,7,1,7,0.00
2013-12-5,83.4,68.5,57.0,66.5,60.1,54.3,93,77,48,30.16,30.06,14,2,14,0.00
2013-12-6,83.8,69.9,58.9,70.3,62.5,56.0,93,79,51,30.16,30.09,18,4,18,0.00
2013-12-7,83.6,70.7,60.5,71.1,63.5,57.6,93,80,53,30.22,30.13,12,2,12,0.00
2013-12-8,84.7,70.5,57.8,68.9,62.1,55.5,93,77,46,30.23,30.09,17,3,17,0.00
2013-12-9,84.3,72.7,63.1,67.4,64.7,59.6,92,78,49,30.17,30.08,12,4,21,0.00
2013-12-10,81.2,67.9,53.2,70.8,62.6,45.5,96,84,61,30.25,30.06,22,6,22,0.46
2013-12-11,72.3,59.0,48.3,58.5,49.0,37.0,78,70,58,30.31,30.20,12,7,12,0.00
2013-12-12,66.8,55.6,38.1,51.6,36.4,20.0,82,54,17,30.38,30.24,23,6,23,0.00
2013-12-13,70.9,52.1,34.8,53.6,44.8,32.3,96,79,51,30.33,30.12,20,4,20,0.00
2013-12-14,76.3,65.6,51.1,69.4,62.4,49.6,98,90,75,30.13,29.90,25,7,25,1.52
2013-12-15,66.3,58.8,44.3,65.3,56.1,42.1,98,91,77,30.18,29.86,20,5,20,0.42
2013-12-16,60.6,45.3,35.9,43.3,38.7,34.8,97,80,44,30.27,30.17,12,3,12,0.00
2013-12-17,69.1,47.7,32.9,45.4,37.7,31.9,97,75,28,30.29,30.18,10,2,10,0.00
2013-12-18,66.5,46.6,33.4,43.9,35.0,28.5,97,71,24,30.33,30.22,15,3,17,0.00
2013-12-19,73.5,49.8,30.2,54.4,42.3,28.8,97,79,42,30.32,30.19,14,2,14,0.00
2013-12-20,81.4,62.3,43.2,64.6,55.4,42.0,97,81,49,30.21,30.11,14,2,14,0.00
2013-12-21,85.6,71.9,61.0,69.1,63.5,58.6,95,77,44,30.13,30.00,20,6,20,0.00
2013-12-22,83.4,72.6,62.8,71.8,67.8,60.6,97,86,64,30.12,30.05,22,7,22,0.00
2013-12-23,81.0,70.5,60.0,72.6,67.3,57.3,97,90,71,30.16,30.07,20,6,20,0.01
2013-12-24,60.9,52.1,37.8,57.2,41.9,30.2,96,72,32,30.33,30.15,21,7,21,0.00
2013-12-25,68.4,48.8,32.7,54.2,42.8,29.8,92,81,59,30.32,30.19,17,7,17,0.00
2013-12-26,64.9,54.3,49.5,53.1,49.5,47.2,92,84,64,30.27,30.16,15,6,15,0.00
2013-12-27,61.2,54.8,50.0,56.1,51.2,46.7,92,88,83,30.33,30.21,13,7,13,0.00
2013-12-28,72.0,62.6,52.7,68.2,59.2,47.7,96,88,82,30.29,29.96,18,7,18,0.01
2013-12-29,74.4,67.7,56.8,69.3,64.5,55.3,96,90,66,30.02,29.89,17,5,17,0.36
2013-12-30,67.7,56.0,45.4,55.3,49.4,44.3,97,81,46,30.21,30.02,13,3,13,0.00
2013-12-31,64.8,55.8,50.8,51.5,49.7,47.0,93,81,56,30.33,30.19,12,2,12,0.00
2014-1-1,58.5,54.7,50.6,57.7,53.1,48.0,97,94,86,30.32,30.07,8,3,8,0.76
2014-1-2,65.1,59.8,49.7,64.0,58.6,44.0,98,96,81,30.07,29.79,25,5,25,0.49